sensor_id;sensor_type;location;lat;lon;timestamp;pressure;altitude;pressure_sealevel;temperature;humidity
69127;BME280;56688;50.234;19.292;2023-06-24T00:00:22;98618.33;;;21.02;63.95
69127;BME280;56688;50.234;19.292;2023-06-24T00:02:49;98616.91;;;21.02;63.90
69127;BME280;56688;50.234;19.292;2023-06-24T00:05:17;98614.95;;;21.02;64.19
69127;BME280;56688;50.234;19.292;2023-06-24T00:07:44;98615.99;;;21.03;64.05
69127;BME280;56688;50.234;19.292;2023-06-24T00:10:13;98612.63;;;21.03;64.73
69127;BME280;56688;50.234;19.292;2023-06-24T00:12:42;98613.91;;;21.01;64.50
69127;BME280;56688;50.234;19.292;2023-06-24T00:15:09;98609.96;;;21.00;64.85
69127;BME280;56688;50.234;19.292;2023-06-24T00:17:37;98606.65;;;20.95;65.20
69127;BME280;56688;50.234;19.292;2023-06-24T00:20:04;98606.95;;;20.93;65.14
69127;BME280;56688;50.234;19.292;2023-06-24T00:22:34;98605.67;;;20.94;65.36
69127;BME280;56688;50.234;19.292;2023-06-24T00:25:01;98598.23;;;20.95;65.13
69127;BME280;56688;50.234;19.292;2023-06-24T00:27:28;98593.44;;;20.94;64.93
69127;BME280;56688;50.234;19.292;2023-06-24T00:29:55;98593.23;;;20.94;65.09
69127;BME280;56688;50.234;19.292;2023-06-24T00:32:22;98597.45;;;20.93;65.30
69127;BME280;56688;50.234;19.292;2023-06-24T00:34:49;98596.25;;;20.93;65.33
69127;BME280;56688;50.234;19.292;2023-06-24T00:37:17;98586.98;;;20.91;65.28
69127;BME280;56688;50.234;19.292;2023-06-24T00:39:44;98582.18;;;20.87;65.29
69127;BME280;56688;50.234;19.292;2023-06-24T00:42:11;98583.37;;;20.84;65.62
69127;BME280;56688;50.234;19.292;2023-06-24T00:44:38;98580.42;;;20.82;66.11
69127;BME280;56688;50.234;19.292;2023-06-24T00:47:06;98582.14;;;20.80;66.36
69127;BME280;56688;50.234;19.292;2023-06-24T00:49:34;98584.23;;;20.78;66.51
69127;BME280;56688;50.234;19.292;2023-06-24T00:52:01;98577.73;;;20.77;66.57
69127;BME280;56688;50.234;19.292;2023-06-24T00:54:29;98582.45;;;20.76;66.55
69127;BME280;56688;50.234;19.292;2023-06-24T00:56:59;98587.54;;;20.73;66.65
69127;BME280;56688;50.234;19.292;2023-06-24T00:59:27;98590.91;;;20.70;66.42
69127;BME280;56688;50.234;19.292;2023-06-24T01:01:57;98596.48;;;20.71;66.44
69127;BME280;56688;50.234;19.292;2023-06-24T01:04:24;98601.86;;;20.71;66.26
69127;BME280;56688;50.234;19.292;2023-06-24T01:06:52;98602.98;;;20.71;65.90
69127;BME280;56688;50.234;19.292;2023-06-24T01:09:20;98600.39;;;20.71;65.97
69127;BME280;56688;50.234;19.292;2023-06-24T01:11:47;98600.79;;;20.70;65.69
69127;BME280;56688;50.234;19.292;2023-06-24T01:14:15;98606.14;;;20.69;65.90
69127;BME280;56688;50.234;19.292;2023-06-24T01:16:52;98607.50;;;20.67;66.02
69127;BME280;56688;50.234;19.292;2023-06-24T01:33:37;98624.95;;;20.64;66.31
69127;BME280;56688;50.234;19.292;2023-06-24T01:36:08;98626.34;;;20.60;66.26
69127;BME280;56688;50.234;19.292;2023-06-24T01:38:42;98630.31;;;20.57;66.32
69127;BME280;56688;50.234;19.292;2023-06-24T01:41:10;98640.77;;;20.51;66.56
69127;BME280;56688;50.234;19.292;2023-06-24T01:43:42;98643.80;;;20.47;66.76
69127;BME280;56688;50.234;19.292;2023-06-24T01:46:11;98643.10;;;20.45;66.93
69127;BME280;56688;50.234;19.292;2023-06-24T01:48:42;98641.63;;;20.42;67.03
69127;BME280;56688;50.234;19.292;2023-06-24T01:51:15;98641.45;;;20.41;67.18
69127;BME280;56688;50.234;19.292;2023-06-24T01:53:51;98640.55;;;20.42;67.35
69127;BME280;56688;50.234;19.292;2023-06-24T01:56:20;98630.55;;;20.41;67.28
69127;BME280;56688;50.234;19.292;2023-06-24T01:58:51;98626.77;;;20.39;67.47
69127;BME280;56688;50.234;19.292;2023-06-24T02:01:19;98624.73;;;20.38;67.62
69127;BME280;56688;50.234;19.292;2023-06-24T02:03:48;98623.58;;;20.36;67.55
69127;BME280;56688;50.234;19.292;2023-06-24T02:06:16;98629.32;;;20.36;67.56
69127;BME280;56688;50.234;19.292;2023-06-24T02:08:47;98634.31;;;20.36;67.82
69127;BME280;56688;50.234;19.292;2023-06-24T02:11:16;98633.45;;;20.36;68.31
69127;BME280;56688;50.234;19.292;2023-06-24T02:13:44;98628.66;;;20.35;68.06
69127;BME280;56688;50.234;19.292;2023-06-24T02:16:16;98628.14;;;20.33;68.06
69127;BME280;56688;50.234;19.292;2023-06-24T02:18:44;98623.67;;;20.31;68.10
69127;BME280;56688;50.234;19.292;2023-06-24T02:21:11;98628.95;;;20.32;68.24
69127;BME280;56688;50.234;19.292;2023-06-24T02:23:39;98632.05;;;20.32;68.42
69127;BME280;56688;50.234;19.292;2023-06-24T02:26:06;98625.02;;;20.35;68.68
69127;BME280;56688;50.234;19.292;2023-06-24T02:28:34;98626.39;;;20.35;68.66
69127;BME280;56688;50.234;19.292;2023-06-24T02:31:01;98629.48;;;20.36;69.08
69127;BME280;56688;50.234;19.292;2023-06-24T02:33:29;98630.23;;;20.34;68.93
69127;BME280;56688;50.234;19.292;2023-06-24T02:35:56;98634.13;;;20.34;68.65
69127;BME280;56688;50.234;19.292;2023-06-24T02:38:23;98635.58;;;20.33;68.87
69127;BME280;56688;50.234;19.292;2023-06-24T02:40:54;98634.52;;;20.32;68.98
69127;BME280;56688;50.234;19.292;2023-06-24T02:43:21;98635.35;;;20.32;69.18
69127;BME280;56688;50.234;19.292;2023-06-24T02:45:48;98634.77;;;20.31;68.84
69127;BME280;56688;50.234;19.292;2023-06-24T02:48:18;98631.80;;;20.32;68.84
69127;BME280;56688;50.234;19.292;2023-06-24T02:50:46;98626.63;;;20.32;69.08
69127;BME280;56688;50.234;19.292;2023-06-24T02:53:14;98625.40;;;20.34;68.80
69127;BME280;56688;50.234;19.292;2023-06-24T02:55:43;98622.27;;;20.32;68.78
69127;BME280;56688;50.234;19.292;2023-06-24T02:58:11;98619.37;;;20.31;68.83
69127;BME280;56688;50.234;19.292;2023-06-24T03:00:38;98616.86;;;20.31;68.94
69127;BME280;56688;50.234;19.292;2023-06-24T03:03:09;98617.37;;;20.28;69.16
69127;BME280;56688;50.234;19.292;2023-06-24T03:05:48;98615.80;;;20.22;69.42
69127;BME280;56688;50.234;19.292;2023-06-24T03:08:19;98623.61;;;20.24;69.67
69127;BME280;56688;50.234;19.292;2023-06-24T03:10:47;98625.88;;;20.27;69.80
69127;BME280;56688;50.234;19.292;2023-06-24T03:13:18;98626.16;;;20.28;69.79
69127;BME280;56688;50.234;19.292;2023-06-24T03:15:50;98625.31;;;20.29;70.29
69127;BME280;56688;50.234;19.292;2023-06-24T03:18:18;98626.49;;;20.28;69.98
69127;BME280;56688;50.234;19.292;2023-06-24T03:20:46;98632.27;;;20.30;69.97
69127;BME280;56688;50.234;19.292;2023-06-24T03:23:16;98631.27;;;20.32;70.06
69127;BME280;56688;50.234;19.292;2023-06-24T03:25:43;98634.78;;;20.34;70.19
69127;BME280;56688;50.234;19.292;2023-06-24T03:28:10;98632.16;;;20.38;70.29
69127;BME280;56688;50.234;19.292;2023-06-24T03:30:43;98639.66;;;20.41;70.06
69127;BME280;56688;50.234;19.292;2023-06-24T03:33:11;98648.20;;;20.42;70.00
69127;BME280;56688;50.234;19.292;2023-06-24T03:35:44;98651.34;;;20.42;69.95
69127;BME280;56688;50.234;19.292;2023-06-24T03:38:13;98646.33;;;20.39;70.30
69127;BME280;56688;50.234;19.292;2023-06-24T03:40:40;98653.34;;;20.40;70.14
69127;BME280;56688;50.234;19.292;2023-06-24T03:43:07;98658.36;;;20.39;70.18
69127;BME280;56688;50.234;19.292;2023-06-24T03:45:34;98660.92;;;20.38;70.22
69127;BME280;56688;50.234;19.292;2023-06-24T03:48:01;98663.58;;;20.40;70.49
69127;BME280;56688;50.234;19.292;2023-06-24T03:50:29;98663.79;;;20.40;70.30
69127;BME280;56688;50.234;19.292;2023-06-24T03:52:56;98667.05;;;20.40;70.55
69127;BME280;56688;50.234;19.292;2023-06-24T03:55:23;98670.09;;;20.36;70.61
69127;BME280;56688;50.234;19.292;2023-06-24T03:57:50;98673.71;;;20.36;70.95
69127;BME280;56688;50.234;19.292;2023-06-24T04:00:17;98671.10;;;20.39;71.28
69127;BME280;56688;50.234;19.292;2023-06-24T04:02:47;98668.61;;;20.42;71.59
69127;BME280;56688;50.234;19.292;2023-06-24T04:05:15;98669.61;;;20.46;71.74
69127;BME280;56688;50.234;19.292;2023-06-24T04:07:42;98670.08;;;20.48;71.99
69127;BME280;56688;50.234;19.292;2023-06-24T04:10:16;98668.34;;;20.51;72.30
69127;BME280;56688;50.234;19.292;2023-06-24T04:12:46;98673.66;;;20.52;72.69
69127;BME280;56688;50.234;19.292;2023-06-24T04:15:13;98679.27;;;20.53;72.78
69127;BME280;56688;50.234;19.292;2023-06-24T04:17:40;98683.30;;;20.54;72.85
69127;BME280;56688;50.234;19.292;2023-06-24T04:20:08;98685.53;;;20.54;72.50
69127;BME280;56688;50.234;19.292;2023-06-24T04:22:37;98687.36;;;20.53;72.53
69127;BME280;56688;50.234;19.292;2023-06-24T04:25:05;98694.73;;;20.53;72.79
69127;BME280;56688;50.234;19.292;2023-06-24T04:27:34;98697.29;;;20.55;72.94
69127;BME280;56688;50.234;19.292;2023-06-24T04:30:02;98698.20;;;20.58;73.14
69127;BME280;56688;50.234;19.292;2023-06-24T04:32:29;98699.19;;;20.59;73.20
69127;BME280;56688;50.234;19.292;2023-06-24T04:34:58;98699.27;;;20.61;73.76
69127;BME280;56688;50.234;19.292;2023-06-24T04:37:26;98697.70;;;20.62;74.20
69127;BME280;56688;50.234;19.292;2023-06-24T04:39:53;98697.89;;;20.63;74.14
69127;BME280;56688;50.234;19.292;2023-06-24T04:42:19;98699.48;;;20.64;74.27
69127;BME280;56688;50.234;19.292;2023-06-24T04:44:46;98701.95;;;20.66;74.59
69127;BME280;56688;50.234;19.292;2023-06-24T04:47:18;98706.42;;;20.68;74.92
69127;BME280;56688;50.234;19.292;2023-06-24T04:49:45;98708.55;;;20.68;75.17
69127;BME280;56688;50.234;19.292;2023-06-24T04:52:12;98709.66;;;20.66;75.37
69127;BME280;56688;50.234;19.292;2023-06-24T04:54:39;98712.46;;;20.63;75.70
69127;BME280;56688;50.234;19.292;2023-06-24T04:57:08;98715.95;;;20.64;75.98
69127;BME280;56688;50.234;19.292;2023-06-24T04:59:51;98715.16;;;20.68;76.00
69127;BME280;56688;50.234;19.292;2023-06-24T05:02:18;98718.38;;;20.68;76.03
69127;BME280;56688;50.234;19.292;2023-06-24T05:04:44;98718.84;;;20.70;76.15
69127;BME280;56688;50.234;19.292;2023-06-24T05:07:11;98716.71;;;20.69;75.91
69127;BME280;56688;50.234;19.292;2023-06-24T05:09:39;98720.11;;;20.67;76.07
69127;BME280;56688;50.234;19.292;2023-06-24T05:12:06;98724.56;;;20.67;76.37
69127;BME280;56688;50.234;19.292;2023-06-24T05:14:35;98729.17;;;20.68;76.60
69127;BME280;56688;50.234;19.292;2023-06-24T05:17:03;98730.15;;;20.70;76.57
69127;BME280;56688;50.234;19.292;2023-06-24T05:19:30;98736.87;;;20.70;76.58
69127;BME280;56688;50.234;19.292;2023-06-24T05:21:57;98738.85;;;20.65;76.98
69127;BME280;56688;50.234;19.292;2023-06-24T05:24:24;98741.17;;;20.53;77.51
69127;BME280;56688;50.234;19.292;2023-06-24T05:26:52;98745.33;;;20.43;77.77
69127;BME280;56688;50.234;19.292;2023-06-24T05:29:19;98748.11;;;20.38;78.14
69127;BME280;56688;50.234;19.292;2023-06-24T05:31:46;98747.25;;;20.32;78.41
69127;BME280;56688;50.234;19.292;2023-06-24T05:34:13;98749.62;;;20.29;79.00
69127;BME280;56688;50.234;19.292;2023-06-24T05:36:40;98752.44;;;20.28;78.99
69127;BME280;56688;50.234;19.292;2023-06-24T05:39:06;98756.20;;;20.25;79.24
69127;BME280;56688;50.234;19.292;2023-06-24T05:41:34;98749.38;;;20.20;79.66
69127;BME280;56688;50.234;19.292;2023-06-24T05:44:03;98754.77;;;20.22;80.17
69127;BME280;56688;50.234;19.292;2023-06-24T05:46:31;98752.11;;;20.19;80.58
69127;BME280;56688;50.234;19.292;2023-06-24T05:48:58;98751.61;;;20.18;80.97
69127;BME280;56688;50.234;19.292;2023-06-24T05:51:24;98751.91;;;20.19;81.26
69127;BME280;56688;50.234;19.292;2023-06-24T05:53:51;98753.70;;;20.19;81.32
69127;BME280;56688;50.234;19.292;2023-06-24T05:56:20;98749.96;;;20.17;81.52
69127;BME280;56688;50.234;19.292;2023-06-24T05:58:48;98758.02;;;20.16;81.68
69127;BME280;56688;50.234;19.292;2023-06-24T06:01:15;98760.55;;;20.12;81.54
69127;BME280;56688;50.234;19.292;2023-06-24T06:03:42;98762.88;;;20.02;82.16
69127;BME280;56688;50.234;19.292;2023-06-24T06:06:09;98762.20;;;19.97;82.72
69127;BME280;56688;50.234;19.292;2023-06-24T06:08:36;98765.67;;;19.97;82.88
69127;BME280;56688;50.234;19.292;2023-06-24T06:11:03;98767.44;;;19.96;82.99
69127;BME280;56688;50.234;19.292;2023-06-24T06:13:30;98771.77;;;19.95;83.26
69127;BME280;56688;50.234;19.292;2023-06-24T06:15:57;98776.46;;;19.94;83.25
69127;BME280;56688;50.234;19.292;2023-06-24T06:18:24;98780.77;;;19.96;83.46
69127;BME280;56688;50.234;19.292;2023-06-24T06:20:51;98785.85;;;19.98;83.34
69127;BME280;56688;50.234;19.292;2023-06-24T06:23:18;98786.27;;;20.00;82.60
69127;BME280;56688;50.234;19.292;2023-06-24T06:25:44;98790.04;;;20.01;81.82
69127;BME280;56688;50.234;19.292;2023-06-24T06:28:15;98795.51;;;20.03;81.73
69127;BME280;56688;50.234;19.292;2023-06-24T06:30:41;98799.61;;;20.05;81.40
69127;BME280;56688;50.234;19.292;2023-06-24T06:33:08;98804.73;;;20.07;81.28
69127;BME280;56688;50.234;19.292;2023-06-24T06:35:35;98803.66;;;20.08;80.91
69127;BME280;56688;50.234;19.292;2023-06-24T06:38:04;98807.77;;;20.03;80.79
69127;BME280;56688;50.234;19.292;2023-06-24T06:40:31;98809.89;;;19.96;80.98
69127;BME280;56688;50.234;19.292;2023-06-24T06:42:58;98804.05;;;19.91;81.23
69127;BME280;56688;50.234;19.292;2023-06-24T06:45:25;98812.29;;;19.91;80.89
69127;BME280;56688;50.234;19.292;2023-06-24T06:47:51;98811.50;;;19.92;80.72
69127;BME280;56688;50.234;19.292;2023-06-24T06:50:18;98810.13;;;19.96;80.80
69127;BME280;56688;50.234;19.292;2023-06-24T06:52:45;98811.03;;;20.01;80.71
69127;BME280;56688;50.234;19.292;2023-06-24T06:55:13;98807.64;;;20.09;80.26
69127;BME280;56688;50.234;19.292;2023-06-24T06:57:39;98809.50;;;20.18;79.99
69127;BME280;56688;50.234;19.292;2023-06-24T07:00:07;98811.40;;;20.24;79.06
69127;BME280;56688;50.234;19.292;2023-06-24T07:02:34;98814.91;;;20.35;78.76
69127;BME280;56688;50.234;19.292;2023-06-24T07:05:00;98815.80;;;20.44;78.53
69127;BME280;56688;50.234;19.292;2023-06-24T07:07:27;98818.95;;;20.56;77.91
69127;BME280;56688;50.234;19.292;2023-06-24T07:09:54;98822.59;;;20.72;76.79
69127;BME280;56688;50.234;19.292;2023-06-24T07:12:21;98828.60;;;20.87;75.32
69127;BME280;56688;50.234;19.292;2023-06-24T07:14:50;98830.45;;;21.00;75.27
69127;BME280;56688;50.234;19.292;2023-06-24T07:17:17;98835.86;;;21.09;74.21
69127;BME280;56688;50.234;19.292;2023-06-24T07:19:44;98833.40;;;21.12;73.47
69127;BME280;56688;50.234;19.292;2023-06-24T07:22:11;98837.02;;;21.19;72.97
69127;BME280;56688;50.234;19.292;2023-06-24T07:24:38;98836.68;;;21.30;72.43
69127;BME280;56688;50.234;19.292;2023-06-24T07:27:05;98835.69;;;21.41;72.09
69127;BME280;56688;50.234;19.292;2023-06-24T07:29:32;98837.66;;;21.49;72.20
69127;BME280;56688;50.234;19.292;2023-06-24T07:31:59;98840.38;;;21.56;70.44
69127;BME280;56688;50.234;19.292;2023-06-24T07:34:26;98838.10;;;21.61;70.54
69127;BME280;56688;50.234;19.292;2023-06-24T07:36:53;98836.40;;;21.68;70.16
69127;BME280;56688;50.234;19.292;2023-06-24T07:39:20;98838.66;;;21.80;69.44
69127;BME280;56688;50.234;19.292;2023-06-24T07:41:47;98839.84;;;21.91;68.34
69127;BME280;56688;50.234;19.292;2023-06-24T07:44:14;98844.79;;;22.00;68.43
69127;BME280;56688;50.234;19.292;2023-06-24T07:46:40;98849.08;;;22.11;68.13
69127;BME280;56688;50.234;19.292;2023-06-24T07:49:07;98854.09;;;22.20;67.46
69127;BME280;56688;50.234;19.292;2023-06-24T07:51:34;98861.49;;;22.25;65.80
69127;BME280;56688;50.234;19.292;2023-06-24T07:54:01;98870.73;;;22.27;65.69
69127;BME280;56688;50.234;19.292;2023-06-24T07:56:28;98875.55;;;22.22;65.77
69127;BME280;56688;50.234;19.292;2023-06-24T07:58:55;98878.62;;;22.15;66.27
69127;BME280;56688;50.234;19.292;2023-06-24T08:01:22;98881.63;;;22.11;66.41
69127;BME280;56688;50.234;19.292;2023-06-24T08:03:49;98884.46;;;22.05;66.04
69127;BME280;56688;50.234;19.292;2023-06-24T08:06:16;98887.72;;;22.00;65.95
69127;BME280;56688;50.234;19.292;2023-06-24T08:08:42;98894.37;;;21.92;65.81
69127;BME280;56688;50.234;19.292;2023-06-24T08:11:09;98897.34;;;21.83;65.74
69127;BME280;56688;50.234;19.292;2023-06-24T08:13:36;98898.25;;;21.74;65.79
69127;BME280;56688;50.234;19.292;2023-06-24T08:16:03;98904.84;;;21.67;66.14
69127;BME280;56688;50.234;19.292;2023-06-24T08:18:30;98910.57;;;21.63;65.77
69127;BME280;56688;50.234;19.292;2023-06-24T08:20:57;98910.85;;;21.60;65.11
69127;BME280;56688;50.234;19.292;2023-06-24T08:23:23;98910.80;;;21.54;64.75
69127;BME280;56688;50.234;19.292;2023-06-24T08:25:50;98914.67;;;21.50;65.46
69127;BME280;56688;50.234;19.292;2023-06-24T08:28:27;98918.84;;;21.49;65.53
69127;BME280;56688;50.234;19.292;2023-06-24T08:30:53;98916.41;;;21.50;65.59
69127;BME280;56688;50.234;19.292;2023-06-24T08:33:20;98919.58;;;21.48;64.93
69127;BME280;56688;50.234;19.292;2023-06-24T08:35:47;98923.08;;;21.46;64.45
69127;BME280;56688;50.234;19.292;2023-06-24T08:38:14;98929.50;;;21.47;65.41
69127;BME280;56688;50.234;19.292;2023-06-24T08:40:42;98930.96;;;21.49;65.61
69127;BME280;56688;50.234;19.292;2023-06-24T08:43:10;98928.27;;;21.54;65.60
69127;BME280;56688;50.234;19.292;2023-06-24T08:45:36;98926.82;;;21.63;65.27
69127;BME280;56688;50.234;19.292;2023-06-24T08:48:04;98924.15;;;21.71;66.09
69127;BME280;56688;50.234;19.292;2023-06-24T08:50:35;98926.10;;;21.77;66.06
69127;BME280;56688;50.234;19.292;2023-06-24T08:53:07;98929.98;;;21.83;65.38
69127;BME280;56688;50.234;19.292;2023-06-24T08:55:39;98932.77;;;21.86;64.94
69127;BME280;56688;50.234;19.292;2023-06-24T08:58:07;98939.20;;;21.88;64.45
69127;BME280;56688;50.234;19.292;2023-06-24T09:00:34;98940.41;;;21.89;64.11
69127;BME280;56688;50.234;19.292;2023-06-24T09:03:02;98941.45;;;21.90;64.46
69127;BME280;56688;50.234;19.292;2023-06-24T09:05:29;98939.61;;;21.93;64.36
69127;BME280;56688;50.234;19.292;2023-06-24T09:07:56;98943.79;;;21.98;63.68
69127;BME280;56688;50.234;19.292;2023-06-24T09:10:30;98942.92;;;22.01;64.11
69127;BME280;56688;50.234;19.292;2023-06-24T09:13:00;98943.00;;;22.04;64.29
69127;BME280;56688;50.234;19.292;2023-06-24T09:15:35;98937.12;;;22.06;64.54
69127;BME280;56688;50.234;19.292;2023-06-24T09:18:04;98944.90;;;22.13;64.69
69127;BME280;56688;50.234;19.292;2023-06-24T09:20:32;98949.23;;;22.20;63.70
69127;BME280;56688;50.234;19.292;2023-06-24T09:23:01;98941.30;;;22.25;62.87
69127;BME280;56688;50.234;19.292;2023-06-24T09:25:29;98949.63;;;22.31;63.15
69127;BME280;56688;50.234;19.292;2023-06-24T09:28:04;98954.56;;;22.37;63.19
69127;BME280;56688;50.234;19.292;2023-06-24T09:30:30;98955.73;;;22.44;63.51
69127;BME280;56688;50.234;19.292;2023-06-24T09:32:58;98955.93;;;22.52;62.86
69127;BME280;56688;50.234;19.292;2023-06-24T09:35:25;98957.52;;;22.57;62.63
69127;BME280;56688;50.234;19.292;2023-06-24T09:37:54;98958.26;;;22.60;62.49
69127;BME280;56688;50.234;19.292;2023-06-24T09:40:22;98958.80;;;22.64;62.77
69127;BME280;56688;50.234;19.292;2023-06-24T09:45:21;98962.33;;;22.73;62.67
69127;BME280;56688;50.234;19.292;2023-06-24T09:47:48;98964.91;;;22.76;62.46
69127;BME280;56688;50.234;19.292;2023-06-24T09:50:15;98959.82;;;22.77;61.74
69127;BME280;56688;50.234;19.292;2023-06-24T09:52:44;98965.71;;;22.73;61.36
69127;BME280;56688;50.234;19.292;2023-06-24T09:55:13;98964.64;;;22.75;62.13
69127;BME280;56688;50.234;19.292;2023-06-24T09:57:44;98970.97;;;22.77;61.23
69127;BME280;56688;50.234;19.292;2023-06-24T10:00:14;98972.83;;;22.71;61.26
69127;BME280;56688;50.234;19.292;2023-06-24T10:02:44;98969.40;;;22.69;61.06
69127;BME280;56688;50.234;19.292;2023-06-24T10:05:13;98974.73;;;22.67;61.09
69127;BME280;56688;50.234;19.292;2023-06-24T10:07:41;98979.30;;;22.65;60.89
69127;BME280;56688;50.234;19.292;2023-06-24T10:10:09;98979.11;;;22.63;60.86
69127;BME280;56688;50.234;19.292;2023-06-24T10:12:36;98975.52;;;22.58;60.88
69127;BME280;56688;50.234;19.292;2023-06-24T10:15:05;98978.20;;;22.55;61.96
69127;BME280;56688;50.234;19.292;2023-06-24T10:17:32;98974.17;;;22.51;61.32
69127;BME280;56688;50.234;19.292;2023-06-24T10:20:03;98973.09;;;22.47;61.73
69127;BME280;56688;50.234;19.292;2023-06-24T10:22:30;98969.20;;;22.46;61.19
69127;BME280;56688;50.234;19.292;2023-06-24T10:25:00;98968.65;;;22.48;61.69
69127;BME280;56688;50.234;19.292;2023-06-24T10:27:28;98970.79;;;22.51;61.64
69127;BME280;56688;50.234;19.292;2023-06-24T10:30:03;98974.82;;;22.52;61.67
69127;BME280;56688;50.234;19.292;2023-06-24T10:32:46;98976.24;;;22.55;62.66
69127;BME280;56688;50.234;19.292;2023-06-24T10:35:26;98976.05;;;22.60;62.29
69127;BME280;56688;50.234;19.292;2023-06-24T10:37:58;98972.20;;;22.63;62.33
69127;BME280;56688;50.234;19.292;2023-06-24T10:40:41;98974.57;;;22.67;61.66
69127;BME280;56688;50.234;19.292;2023-06-24T10:45:52;98979.80;;;22.76;61.46
69127;BME280;56688;50.234;19.292;2023-06-24T10:48:19;98981.65;;;22.81;61.40
69127;BME280;56688;50.234;19.292;2023-06-24T10:50:47;98986.63;;;22.87;61.28
69127;BME280;56688;50.234;19.292;2023-06-24T10:53:14;98987.55;;;22.90;60.94
69127;BME280;56688;50.234;19.292;2023-06-24T10:55:41;98988.58;;;23.00;62.41
69127;BME280;56688;50.234;19.292;2023-06-24T10:58:09;98990.30;;;23.09;61.57
69127;BME280;56688;50.234;19.292;2023-06-24T11:00:39;98987.59;;;23.22;61.70
69127;BME280;56688;50.234;19.292;2023-06-24T11:03:08;98989.21;;;23.32;60.84
69127;BME280;56688;50.234;19.292;2023-06-24T11:05:40;98988.15;;;23.36;59.96
69127;BME280;56688;50.234;19.292;2023-06-24T11:08:08;98990.05;;;23.35;60.03
69127;BME280;56688;50.234;19.292;2023-06-24T11:10:51;98989.16;;;23.33;60.05
69127;BME280;56688;50.234;19.292;2023-06-24T11:13:20;98993.23;;;23.26;60.25
69127;BME280;56688;50.234;19.292;2023-06-24T11:15:47;98997.06;;;23.14;60.58
69127;BME280;56688;50.234;19.292;2023-06-24T11:18:14;98996.92;;;23.00;60.46
69127;BME280;56688;50.234;19.292;2023-06-24T11:20:41;98997.61;;;22.84;61.19
69127;BME280;56688;50.234;19.292;2023-06-24T11:23:09;99000.25;;;22.68;61.55
69127;BME280;56688;50.234;19.292;2023-06-24T11:25:40;99001.93;;;22.50;61.78
69127;BME280;56688;50.234;19.292;2023-06-24T11:28:23;99000.83;;;22.36;62.46
69127;BME280;56688;50.234;19.292;2023-06-24T11:30:50;99004.60;;;22.24;62.99
69127;BME280;56688;50.234;19.292;2023-06-24T11:33:33;99003.20;;;22.13;62.41
69127;BME280;56688;50.234;19.292;2023-06-24T11:36:00;99005.16;;;22.01;63.12
69127;BME280;56688;50.234;19.292;2023-06-24T11:38:27;99004.37;;;21.91;63.52
69127;BME280;56688;50.234;19.292;2023-06-24T11:40:59;99006.06;;;21.81;63.13
69127;BME280;56688;50.234;19.292;2023-06-24T11:43:26;99009.25;;;21.72;63.19
69127;BME280;56688;50.234;19.292;2023-06-24T11:45:52;99007.27;;;21.64;63.31
69127;BME280;56688;50.234;19.292;2023-06-24T11:48:20;99005.55;;;21.55;63.25
69127;BME280;56688;50.234;19.292;2023-06-24T11:50:53;99002.81;;;21.44;63.75
69127;BME280;56688;50.234;19.292;2023-06-24T11:53:29;99005.65;;;21.31;64.18
69127;BME280;56688;50.234;19.292;2023-06-24T11:55:57;99005.10;;;21.24;64.29
69127;BME280;56688;50.234;19.292;2023-06-24T11:58:24;99006.33;;;21.19;64.83
69127;BME280;56688;50.234;19.292;2023-06-24T12:00:50;99004.56;;;21.17;64.80
69127;BME280;56688;50.234;19.292;2023-06-24T12:03:22;99006.27;;;21.16;64.97
69127;BME280;56688;50.234;19.292;2023-06-24T12:05:49;99004.68;;;21.16;65.15
69127;BME280;56688;50.234;19.292;2023-06-24T12:08:16;99010.01;;;21.12;65.21
69127;BME280;56688;50.234;19.292;2023-06-24T12:10:44;99012.60;;;21.03;64.98
69127;BME280;56688;50.234;19.292;2023-06-24T12:13:12;99011.10;;;20.90;65.61
69127;BME280;56688;50.234;19.292;2023-06-24T12:15:39;99014.44;;;20.82;65.85
69127;BME280;56688;50.234;19.292;2023-06-24T12:18:06;99013.85;;;20.76;66.20
69127;BME280;56688;50.234;19.292;2023-06-24T12:20:34;99011.35;;;20.71;66.17
69127;BME280;56688;50.234;19.292;2023-06-24T12:23:05;99013.75;;;20.69;66.57
69127;BME280;56688;50.234;19.292;2023-06-24T12:25:32;99012.66;;;20.69;66.69
69127;BME280;56688;50.234;19.292;2023-06-24T12:27:59;99012.03;;;20.70;66.53
69127;BME280;56688;50.234;19.292;2023-06-24T12:30:27;99013.77;;;20.68;66.53
69127;BME280;56688;50.234;19.292;2023-06-24T12:32:54;99020.79;;;20.65;66.71
69127;BME280;56688;50.234;19.292;2023-06-24T12:35:22;99020.77;;;20.59;66.65
69127;BME280;56688;50.234;19.292;2023-06-24T12:37:52;99024.11;;;20.53;66.78
69127;BME280;56688;50.234;19.292;2023-06-24T12:40:19;99021.62;;;20.49;67.12
69127;BME280;56688;50.234;19.292;2023-06-24T12:42:46;99022.93;;;20.50;67.91
69127;BME280;56688;50.234;19.292;2023-06-24T12:45:13;99021.45;;;20.52;68.13
69127;BME280;56688;50.234;19.292;2023-06-24T12:47:40;99025.04;;;20.53;68.12
69127;BME280;56688;50.234;19.292;2023-06-24T12:50:07;99033.69;;;20.51;68.02
69127;BME280;56688;50.234;19.292;2023-06-24T12:52:35;99029.95;;;20.51;68.85
69127;BME280;56688;50.234;19.292;2023-06-24T12:55:02;99034.10;;;20.53;68.90
69127;BME280;56688;50.234;19.292;2023-06-24T12:57:30;99032.44;;;20.54;68.36
69127;BME280;56688;50.234;19.292;2023-06-24T12:59:57;99032.86;;;20.56;68.37
69127;BME280;56688;50.234;19.292;2023-06-24T13:02:24;99031.77;;;20.65;68.48
69127;BME280;56688;50.234;19.292;2023-06-24T13:04:51;99030.70;;;20.74;68.31
69127;BME280;56688;50.234;19.292;2023-06-24T13:07:18;99030.36;;;20.82;67.73
69127;BME280;56688;50.234;19.292;2023-06-24T13:09:45;99031.17;;;20.91;67.14
69127;BME280;56688;50.234;19.292;2023-06-24T13:12:11;99032.70;;;20.96;66.16
69127;BME280;56688;50.234;19.292;2023-06-24T13:14:38;99033.89;;;21.02;66.32